createdAt,value
2019-05-26T00:00:11.864Z,95.10
2019-05-26T00:05:16.619Z,94.90
2019-05-26T00:10:20.956Z,95.10
2019-05-26T00:15:25.560Z,95.10
2019-05-26T00:20:29.891Z,95.50
2019-05-26T00:25:34.220Z,95.70
2019-05-26T00:30:38.602Z,95.90
2019-05-26T00:35:43.037Z,96.10
2019-05-26T00:40:47.754Z,96.20
2019-05-26T00:45:52.167Z,96.20
2019-05-26T00:50:56.495Z,96.30
2019-05-26T00:56:00.827Z,96.30
2019-05-26T01:01:05.533Z,96.70
2019-05-26T01:06:09.960Z,97.10
2019-05-26T01:11:14.295Z,97.50
2019-05-26T01:16:18.630Z,97.70
2019-05-26T01:21:23.040Z,97.80
2019-05-26T01:26:27.380Z,98.00
2019-05-26T01:31:31.715Z,98.30
2019-05-26T01:36:36.203Z,98.60
2019-05-26T01:41:41.731Z,98.60
2019-05-26T01:46:46.151Z,98.60
2019-05-26T01:51:50.733Z,98.90
2019-05-26T01:56:55.140Z,99.00
2019-05-26T02:01:59.485Z,99.00
2019-05-26T02:07:03.876Z,99.30
2019-05-26T02:12:08.301Z,99.90
2019-05-26T02:17:12.715Z,99.90
2019-05-26T02:22:17.102Z,99.90
2019-05-26T02:27:21.917Z,99.90
2019-05-26T02:32:26.266Z,99.90
2019-05-26T02:37:30.662Z,99.90
2019-05-26T02:42:35.144Z,99.90
2019-05-26T02:47:39.473Z,99.90
2019-05-26T02:52:43.956Z,99.90
2019-05-26T02:57:48.342Z,99.90
2019-05-26T03:02:53.154Z,99.90
2019-05-26T03:07:57.902Z,99.90
2019-05-26T03:13:04.108Z,99.90
2019-05-26T03:18:08.506Z,99.90
2019-05-26T03:23:12.851Z,99.90
2019-05-26T03:28:17.288Z,99.90
2019-05-26T03:33:21.706Z,99.90
2019-05-26T03:38:26.121Z,99.90
2019-05-26T03:43:30.463Z,99.90
2019-05-26T03:48:34.881Z,99.90
2019-05-26T03:53:48.157Z,99.90
2019-05-26T03:59:05.287Z,99.90
2019-05-26T04:04:09.624Z,99.90
2019-05-26T04:09:13.969Z,99.90
2019-05-26T04:14:18.311Z,99.80
2019-05-26T04:19:23.743Z,99.50
2019-05-26T04:24:28.138Z,99.30
2019-05-26T04:29:32.471Z,98.90
2019-05-26T04:34:36.832Z,98.80
2019-05-26T04:39:41.170Z,98.40
2019-05-26T04:44:45.505Z,98.00
2019-05-26T04:49:49.858Z,98.00
2019-05-26T04:54:54.324Z,98.00
2019-05-26T04:59:59.047Z,97.90
2019-05-26T05:05:09.213Z,97.50
2019-05-26T05:10:13.882Z,97.20
2019-05-26T05:15:19.427Z,97.10
2019-05-26T05:20:23.831Z,97.10
2019-05-26T05:25:28.191Z,96.90
2019-05-26T05:30:32.520Z,96.60
2019-05-26T05:35:36.886Z,94.20
2019-05-26T05:40:57.987Z,94.50
2019-05-26T05:45:47.271Z,93.70
2019-05-26T05:50:51.619Z,93.20
2019-05-26T05:55:56.044Z,92.20
2019-05-26T06:01:00.456Z,91.90
2019-05-26T06:06:04.793Z,91.60
2019-05-26T06:11:16.512Z,91.40
2019-05-26T06:16:15.160Z,91.30
2019-05-26T06:21:19.532Z,90.70
2019-05-26T06:26:23.879Z,90.30
2019-05-26T06:31:30.556Z,87.50
2019-05-26T06:36:34.912Z,85.60
2019-05-26T06:41:40.241Z,86.10
2019-05-26T06:46:44.619Z,85.70
2019-05-26T06:51:48.973Z,83.20
2019-05-26T06:56:54.879Z,82.70
2019-05-26T07:01:59.304Z,82.00
2019-05-26T07:07:05.480Z,80.70
2019-05-26T07:12:11.188Z,80.00
2019-05-26T07:17:15.658Z,79.30
2019-05-26T07:22:20.059Z,77.60
2019-05-26T07:27:24.423Z,76.40
2019-05-26T07:32:31.107Z,72.80
2019-05-26T07:37:36.375Z,73.20
2019-05-26T07:42:40.801Z,71.30
2019-05-26T07:47:45.134Z,69.80
2019-05-26T07:52:49.468Z,68.80
2019-05-26T07:57:53.922Z,67.30
2019-05-26T08:02:58.280Z,65.00
2019-05-26T08:08:26.878Z,65.70
2019-05-26T08:13:30.379Z,64.80
2019-05-26T08:18:34.747Z,65.10
2019-05-26T08:23:39.201Z,66.10
2019-05-26T08:28:43.743Z,65.70
2019-05-26T08:33:48.749Z,64.60
2019-05-26T08:38:53.199Z,63.10
2019-05-26T08:43:57.584Z,61.50
2019-05-26T08:49:02.004Z,61.50
2019-05-26T08:54:07.554Z,63.90
2019-05-26T08:59:11.896Z,62.00
2019-05-26T09:04:16.244Z,59.60
2019-05-26T09:09:21.437Z,60.30
2019-05-26T09:14:27.048Z,59.80
2019-05-26T09:19:31.696Z,59.40
2019-05-26T09:24:36.441Z,58.60
2019-05-26T09:29:41.313Z,58.20
2019-05-26T09:34:45.666Z,56.30
2019-05-26T09:39:50.136Z,56.00
2019-05-26T09:44:54.891Z,56.60
2019-05-26T09:49:59.240Z,56.20
2019-05-26T09:55:05.658Z,54.40
2019-05-26T10:00:11.510Z,53.80
2019-05-26T10:05:16.516Z,53.10
2019-05-26T10:10:21.937Z,51.90
2019-05-26T10:15:27.993Z,51.90
2019-05-26T10:20:32.828Z,50.30
2019-05-26T10:25:37.810Z,51.40
2019-05-26T10:30:42.540Z,51.40
2019-05-26T10:35:47.259Z,49.20
2019-05-26T10:40:51.624Z,50.00
2019-05-26T10:45:56.213Z,49.80
2019-05-26T10:51:00.624Z,50.50
2019-05-26T10:56:06.094Z,50.20
2019-05-26T11:01:10.477Z,48.40
2019-05-26T11:06:14.878Z,48.20
2019-05-26T11:11:19.533Z,47.70
2019-05-26T11:16:23.939Z,47.40
2019-05-26T11:21:28.370Z,48.50
2019-05-26T11:26:32.732Z,47.30
2019-05-26T11:31:37.233Z,44.90
2019-05-26T11:36:41.674Z,45.60
2019-05-26T11:41:54.388Z,46.00
2019-05-26T11:46:52.056Z,46.60
2019-05-26T11:51:56.398Z,45.50
2019-05-26T11:57:00.735Z,43.20
2019-05-26T12:02:05.330Z,42.10
2019-05-26T12:07:09.752Z,40.50
2019-05-26T12:12:14.447Z,43.20
2019-05-26T12:17:19.765Z,44.30
2019-05-26T12:22:24.469Z,41.80
2019-05-26T12:27:29.744Z,42.60
2019-05-26T12:32:35.242Z,41.10
2019-05-26T12:37:39.677Z,41.30
2019-05-26T12:42:44.107Z,42.70
2019-05-26T12:47:48.538Z,42.40
2019-05-26T12:52:52.956Z,40.80
2019-05-26T12:57:57.329Z,39.80
2019-05-26T13:03:01.721Z,39.90
2019-05-26T13:08:06.132Z,38.50
2019-05-26T13:13:10.548Z,36.70
2019-05-26T13:18:16.022Z,36.50
2019-05-26T13:23:22.464Z,36.80
2019-05-26T13:28:26.902Z,38.00
2019-05-26T13:33:32.640Z,36.50
2019-05-26T13:38:37.146Z,36.70
2019-05-26T13:43:41.543Z,36.80
2019-05-26T13:48:45.916Z,36.70
2019-05-26T13:53:50.285Z,35.80
2019-05-26T13:58:54.684Z,35.70
2019-05-26T14:03:59.046Z,36.10
2019-05-26T14:09:05.034Z,37.70
2019-05-26T14:14:09.598Z,38.10
2019-05-26T14:19:18.329Z,38.30
2019-05-26T14:24:23.391Z,37.60
2019-05-26T14:29:29.364Z,38.20
2019-05-26T14:34:33.791Z,39.10
2019-05-26T14:39:38.132Z,40.10
2019-05-26T14:44:42.535Z,40.40
2019-05-26T14:50:17.391Z,39.70
2019-05-26T14:55:21.739Z,39.20
2019-05-26T15:00:27.616Z,39.80
2019-05-26T15:05:31.969Z,40.80
2019-05-26T15:10:41.852Z,41.30
2019-05-26T15:15:46.551Z,40.50
2019-05-26T15:20:50.919Z,40.70
2019-05-26T15:25:55.837Z,43.90
2019-05-26T15:31:00.403Z,43.20
2019-05-26T15:36:11.027Z,42.90
2019-05-26T15:41:15.467Z,44.80
2019-05-26T15:46:25.194Z,46.80
2019-05-26T15:51:25.868Z,48.70
2019-05-26T15:56:30.211Z,49.80
2019-05-26T16:01:35.112Z,49.10
2019-05-26T16:06:39.621Z,48.40
2019-05-26T16:11:44.895Z,48.10
2019-05-26T16:16:51.421Z,47.90
2019-05-26T16:21:55.680Z,47.90
2019-05-26T16:27:05.066Z,47.80
2019-05-26T16:32:06.151Z,48.70
2019-05-26T16:37:10.508Z,48.30
2019-05-26T16:42:14.954Z,47.20
2019-05-26T16:47:19.384Z,46.00
2019-05-26T16:52:24.545Z,46.40
2019-05-26T16:57:28.959Z,46.60
2019-05-26T17:02:33.387Z,47.80
2019-05-26T17:07:37.839Z,49.70
2019-05-26T17:12:43.148Z,50.90
2019-05-26T17:17:47.836Z,51.00
2019-05-26T17:22:52.573Z,52.30
2019-05-26T17:27:59.158Z,53.50
2019-05-26T17:33:04.114Z,54.10
2019-05-26T17:38:08.699Z,54.70
2019-05-26T17:43:13.226Z,55.50
2019-05-26T17:48:18.007Z,56.30
2019-05-26T17:53:22.814Z,56.40
2019-05-26T17:58:27.407Z,56.40
2019-05-26T18:03:31.779Z,57.00
2019-05-26T18:08:37.006Z,57.50
2019-05-26T18:13:42.119Z,58.00
2019-05-26T18:18:46.491Z,58.50
2019-05-26T18:23:51.532Z,58.90
2019-05-26T18:28:56.172Z,59.40
2019-05-26T18:34:00.590Z,59.80
2019-05-26T18:39:08.049Z,60.40
2019-05-26T18:44:12.416Z,61.20
2019-05-26T18:49:16.885Z,62.00
2019-05-26T18:54:21.973Z,62.80
2019-05-26T18:59:26.467Z,64.50
2019-05-26T19:04:32.370Z,64.30
2019-05-26T19:09:36.903Z,65.40
2019-05-26T19:14:41.818Z,64.70
2019-05-26T19:19:46.263Z,64.80
2019-05-26T19:24:52.283Z,65.20
2019-05-26T19:29:57.006Z,65.50
2019-05-26T19:35:01.417Z,66.10
2019-05-26T19:40:10.094Z,66.70
2019-05-26T19:45:14.746Z,67.20
2019-05-26T19:50:19.290Z,68.20
2019-05-26T19:55:23.740Z,69.00
2019-05-26T20:00:29.116Z,69.90
2019-05-26T20:05:33.461Z,69.90
2019-05-26T20:10:37.927Z,70.20
2019-05-26T20:15:44.022Z,69.80
2019-05-26T20:20:48.664Z,69.70
2019-05-26T20:25:53.079Z,69.50
2019-05-26T20:30:57.444Z,69.60
2019-05-26T20:36:04.743Z,70.10
2019-05-26T20:41:10.761Z,70.10
2019-05-26T20:46:16.092Z,70.10
2019-05-26T20:51:20.524Z,70.10
2019-05-26T20:56:26.760Z,70.30
2019-05-26T21:01:31.117Z,71.00
2019-05-26T21:06:35.568Z,71.20
2019-05-26T21:11:42.907Z,71.60
2019-05-26T21:16:47.248Z,72.00
2019-05-26T21:21:51.728Z,72.30
2019-05-26T21:26:56.103Z,72.60
2019-05-26T21:32:01.161Z,72.50
2019-05-26T21:37:05.527Z,72.10
2019-05-26T21:42:09.927Z,72.20
2019-05-26T21:47:20.495Z,72.40
2019-05-26T21:52:24.982Z,72.60
2019-05-26T21:57:29.495Z,73.40
2019-05-26T22:02:34.044Z,74.10
2019-05-26T22:07:38.487Z,74.50
2019-05-26T22:12:42.892Z,75.00
2019-05-26T22:17:47.376Z,75.40
2019-05-26T22:22:52.848Z,75.50
2019-05-26T22:27:58.881Z,75.60
2019-05-26T22:33:03.398Z,76.30
2019-05-26T22:38:07.812Z,76.70
2019-05-26T22:43:12.450Z,76.80
2019-05-26T22:48:16.872Z,77.00
2019-05-26T22:53:22.283Z,77.20
2019-05-26T22:58:26.702Z,77.30
2019-05-26T23:03:33.403Z,77.20
2019-05-26T23:08:39.255Z,77.00
2019-05-26T23:13:44.187Z,77.00
2019-05-26T23:18:48.522Z,76.90
2019-05-26T23:23:52.895Z,77.00
2019-05-26T23:28:58.257Z,77.20
2019-05-26T23:34:02.808Z,77.10
2019-05-26T23:39:07.351Z,77.30
2019-05-26T23:44:11.807Z,77.20
2019-05-26T23:49:16.143Z,78.00
2019-05-26T23:54:20.545Z,78.40
2019-05-26T23:59:24.976Z,78.50
